Time,TemperatureF,DewpointF,PressureIn,WindDirection,WindDirectionDegrees,WindSpeedMPH,WindSpeedGustMPH,Humidity,HourlyPrecipIn,Conditions,Clouds,dailyrainin,SoftwareType,DateUTC
2013-02-13 00:05:00,28.3,24.1,29.74,ENE,68,1.4,4.0,82,0.00,,,0.00,WSDL version 420,2013-02-13 05:05:00,
2013-02-13 00:25:00,28.2,24.0,29.74,NW,304,1.8,5.4,82,0.00,,,0.00,WSDL version 420,2013-02-13 05:25:00,
2013-02-13 00:45:00,28.0,24.1,29.74,North,353,2.7,5.6,83,0.00,,,0.00,WSDL version 420,2013-02-13 05:45:00,
2013-02-13 01:05:00,28.0,23.8,29.74,West,266,4.5,10.7,82,0.00,,,0.00,WSDL version 420,2013-02-13 06:05:00,
2013-02-13 01:25:00,27.9,23.7,29.74,WNW,298,6.6,13.2,82,0.00,,,0.00,WSDL version 420,2013-02-13 06:25:00,
2013-02-13 01:45:00,27.7,23.1,29.71,WNW,284,12.3,15.9,80,0.00,,,0.00,WSDL version 420,2013-02-13 06:45:00,
2013-02-13 02:05:00,27.5,22.8,29.71,WNW,301,12.0,17.4,80,0.00,,,0.00,WSDL version 420,2013-02-13 07:05:00,
2013-02-13 02:25:00,27.2,22.6,29.71,WNW,293,9.0,15.2,80,0.00,,,0.00,WSDL version 420,2013-02-13 07:25:00,
2013-02-13 02:45:00,27.1,22.4,29.74,WNW,295,12.0,15.4,80,0.00,,,0.00,WSDL version 420,2013-02-13 07:45:00,
2013-02-13 03:05:00,27.0,22.2,29.74,West,276,7.4,10.7,80,0.00,,,0.00,WSDL version 420,2013-02-13 08:05:00,
2013-02-13 03:25:00,27.0,22.2,29.74,WNW,289,8.0,17.7,80,0.00,,,0.00,WSDL version 420,2013-02-13 08:25:00,
2013-02-13 03:44:00,26.8,22.3,29.74,West,270,5.7,10.5,81,0.00,,,0.00,WSDL version 420,2013-02-13 08:44:00,
2013-02-13 04:04:00,26.8,22.3,29.74,West,259,4.5,10.1,81,0.00,,,0.00,WSDL version 420,2013-02-13 09:04:00,
2013-02-13 04:24:00,26.8,22.3,29.71,NNW,332,2.7,9.8,81,0.00,,,0.00,WSDL version 420,2013-02-13 09:24:00,
2013-02-13 04:44:00,26.8,22.1,29.74,NW,319,3.6,5.8,80,0.00,,,0.00,WSDL version 420,2013-02-13 09:44:00,
2013-02-13 05:04:00,26.8,22.2,29.71,East,83,3.0,6.0,81,0.00,,,0.00,WSDL version 420,2013-02-13 10:04:00,
2013-02-13 05:24:00,26.9,22.3,29.74,ENE,68,2.5,10.3,81,0.00,,,0.00,WSDL version 420,2013-02-13 10:24:00,
2013-02-13 05:44:00,26.8,22.5,29.74,ENE,71,3.9,5.4,82,0.00,,,0.00,WSDL version 420,2013-02-13 10:44:00,
2013-02-13 06:04:00,26.8,22.6,29.71,WSW,238,3.4,6.0,82,0.00,,,0.00,WSDL version 420,2013-02-13 11:04:00,
2013-02-13 06:25:00,26.8,22.4,29.74,ENE,58,2.5,5.4,82,0.00,,,0.00,WSDL version 420,2013-02-13 11:25:00,
2013-02-13 06:45:00,26.6,22.5,29.74,North,11,1.4,7.8,82,0.00,,,0.00,WSDL version 420,2013-02-13 11:45:00,
2013-02-13 07:05:00,26.8,22.3,29.74,SSE,161,2.3,6.5,81,0.00,,,0.00,WSDL version 420,2013-02-13 12:05:00,
2013-02-13 07:25:00,26.8,22.3,29.71,NE,34,1.5,5.6,81,0.00,,,0.00,WSDL version 420,2013-02-13 12:25:00,
2013-02-13 07:45:00,27.0,22.5,29.71,East,87,2.7,5.6,81,0.00,,,0.00,WSDL version 420,2013-02-13 12:45:00,
2013-02-13 08:05:00,27.1,22.4,29.71,SE,138,1.5,4.3,80,0.00,,,0.00,WSDL version 420,2013-02-13 13:05:00,
2013-02-13 08:25:00,27.2,22.5,29.71,SSE,163,3.0,5.6,80,0.00,,,0.00,WSDL version 420,2013-02-13 13:25:00,
2013-02-13 08:45:00,27.7,22.9,29.74,NE,45,2.4,4.3,80,0.00,,,0.00,WSDL version 420,2013-02-13 13:45:00,
2013-02-13 09:05:00,27.9,22.8,29.74,ENE,64,1.1,4.9,79,0.00,,,0.00,WSDL version 420,2013-02-13 14:05:00,
2013-02-13 09:24:00,28.4,23.6,29.74,ENE,68,0.4,2.0,80,0.00,,,0.00,WSDL version 420,2013-02-13 14:24:00,
2013-02-13 09:44:00,28.2,23.5,29.74,East,98,4.4,6.3,80,0.00,,,0.00,WSDL version 420,2013-02-13 14:44:00,
2013-02-13 10:04:00,28.6,24.0,29.74,East,90,3.1,3.8,80,0.00,,,0.00,WSDL version 420,2013-02-13 15:04:00,
2013-02-13 10:24:00,28.8,24.1,29.71,NNW,338,3.1,3.8,80,0.00,,,0.00,WSDL version 420,2013-02-13 15:24:00,
2013-02-13 10:44:00,29.5,24.2,29.74,SSW,210,1.3,3.1,78,0.00,,,0.00,WSDL version 420,2013-02-13 15:44:00,
2013-02-13 11:04:00,30.2,24.5,29.74,WNW,293,2.9,4.9,76,0.00,,,0.00,WSDL version 420,2013-02-13 16:04:00,
2013-02-13 11:24:00,30.7,23.6,29.77,East,86,3.2,4.9,71,0.00,,,0.00,WSDL version 420,2013-02-13 16:24:00,
2013-02-13 11:44:00,31.6,24.2,29.74,SW,225,3.2,7.4,70,0.00,,,0.00,WSDL version 420,2013-02-13 16:44:00,
2013-02-13 12:04:00,31.9,23.7,29.74,West,259,4.1,7.8,68,0.00,,,0.00,WSDL version 420,2013-02-13 17:04:00,
2013-02-13 12:25:00,32.1,22.8,29.71,North,0,0.0,1.6,67,0.00,,,0.00,WSDL version 420,2013-02-13 17:25:00,
2013-02-13 12:45:00,33.4,22.8,29.68,NE,34,4.1,4.1,64,0.00,,,0.00,WSDL version 420,2013-02-13 17:45:00,
2013-02-13 13:05:00,33.2,21.2,29.71,West,270,1.8,3.8,61,0.00,,,0.00,WSDL version 420,2013-02-13 18:05:00,
2013-02-13 13:25:00,32.5,20.3,29.71,WNW,293,4.0,6.5,60,0.00,,,0.00,WSDL version 420,2013-02-13 18:25:00,
2013-02-13 13:45:00,32.1,20.8,29.68,South,180,6.5,6.5,61,0.00,,,0.00,WSDL version 420,2013-02-13 18:45:00,
2013-02-13 14:05:00,32.2,21.2,29.71,SE,135,1.3,2.2,64,0.00,,,0.00,WSDL version 420,2013-02-13 19:05:00,
2013-02-13 14:25:00,31.8,23.2,29.68,East,90,2.2,6.3,67,0.00,,,0.00,WSDL version 420,2013-02-13 19:25:00,
2013-02-13 14:44:00,31.7,23.1,29.68,South,169,2.0,4.9,67,0.00,,,0.00,WSDL version 420,2013-02-13 19:44:00,
2013-02-13 15:04:00,31.8,23.2,29.68,ESE,122,1.7,4.0,67,0.00,,,0.00,WSDL version 420,2013-02-13 20:04:00,
2013-02-13 15:24:00,31.6,23.0,29.68,East,90,2.7,4.9,67,0.00,,,0.00,WSDL version 420,2013-02-13 20:24:00,
2013-02-13 15:44:00,30.9,22.7,29.68,ESE,113,2.0,3.6,68,0.00,,,0.00,WSDL version 420,2013-02-13 20:44:00,
2013-02-13 16:04:00,30.7,22.4,29.68,East,95,2.0,2.5,68,0.00,,,0.00,WSDL version 420,2013-02-13 21:04:00,
2013-02-13 16:24:00,30.4,22.5,29.68,South,169,1.4,2.7,69,0.00,,,0.00,WSDL version 420,2013-02-13 21:24:00,
2013-02-13 16:44:00,30.0,22.1,29.68,WNW,293,0.6,3.1,69,0.00,,,0.00,WSDL version 420,2013-02-13 21:44:00,
2013-02-13 17:04:00,29.7,22.1,29.68,NW,311,1.0,2.2,70,0.00,,,0.00,WSDL version 420,2013-02-13 22:04:00,
2013-02-13 17:25:00,29.3,22.0,29.68,WNW,293,1.0,2.0,71,0.00,,,0.00,WSDL version 420,2013-02-13 22:25:00,
2013-02-13 17:45:00,29.0,22.0,29.68,WNW,293,1.3,2.0,72,0.00,,,0.00,WSDL version 420,2013-02-13 22:45:00,
2013-02-13 18:05:00,28.7,22.3,29.68,West,273,0.0,0.9,74,0.00,,,0.00,WSDL version 420,2013-02-13 23:05:00,
2013-02-13 18:25:00,28.6,22.2,29.65,SW,225,0.0,2.0,74,0.00,,,0.00,WSDL version 420,2013-02-13 23:25:00,
2013-02-13 18:45:00,28.4,22.5,29.68,SSW,212,0.0,0.0,76,0.00,,,0.00,WSDL version 420,2013-02-13 23:45:00,
2013-02-13 19:05:00,28.0,22.2,29.65,WSW,248,0.0,0.0,76,0.00,,,0.00,WSDL version 420,2013-02-14 00:05:00,
2013-02-13 19:25:00,27.9,22.3,29.68,West,270,0.0,0.0,77,0.00,,,0.00,WSDL version 420,2013-02-14 00:25:00,
2013-02-13 19:44:00,27.5,22.2,29.68,SSW,203,0.0,0.0,78,0.00,,,0.00,WSDL version 420,2013-02-14 00:44:00,
2013-02-13 20:04:00,27.3,22.0,29.65,West,270,0.6,1.3,78,0.00,,,0.00,WSDL version 420,2013-02-14 01:04:00,
2013-02-13 20:24:00,27.2,21.9,29.71,West,270,1.5,2.2,78,0.00,,,0.00,WSDL version 420,2013-02-14 01:24:00,
2013-02-13 20:44:00,27.0,21.4,29.65,NW,308,2.0,2.9,77,0.00,,,0.00,WSDL version 420,2013-02-14 01:44:00,
2013-02-13 21:04:00,26.8,21.0,29.68,West,270,1.1,2.0,76,0.00,,,0.00,WSDL version 420,2013-02-14 02:04:00,
2013-02-13 21:24:00,26.6,21.1,29.68,WNW,293,1.6,2.0,77,0.00,,,0.00,WSDL version 420,2013-02-14 02:24:00,
2013-02-13 21:44:00,26.6,21.1,29.65,West,281,2.5,3.4,77,0.00,,,0.00,WSDL version 420,2013-02-14 02:44:00,
2013-02-13 22:04:00,26.6,21.1,29.68,WSW,248,1.4,2.7,78,0.00,,,0.00,WSDL version 420,2013-02-14 03:04:00,
2013-02-13 22:25:00,26.4,21.2,29.68,SSW,203,0.4,1.6,78,0.00,,,0.00,WSDL version 420,2013-02-14 03:25:00,
2013-02-13 22:45:00,26.1,21.0,29.65,NW,315,0.0,2.0,79,0.00,,,0.00,WSDL version 420,2013-02-14 03:45:00,
2013-02-13 23:05:00,25.8,21.1,29.68,WSW,248,1.5,2.0,80,0.00,,,0.00,WSDL version 420,2013-02-14 04:05:00,
2013-02-13 23:25:00,25.9,21.2,29.68,SSW,203,0.0,0.0,80,0.00,,,0.00,WSDL version 420,2013-02-14 04:25:00,
2013-02-13 23:45:00,25.9,21.5,29.68,WSW,245,0.0,1.1,81,0.00,,,0.00,WSDL version 420,2013-02-14 04:45:00,